createdAt,value
2022-12-07T00:01:34.785Z,42.15
2022-12-07T00:04:39.188Z,44.65
2022-12-07T00:07:43.761Z,33.95
2022-12-07T00:10:48.296Z,33.97
2022-12-07T00:13:58.655Z,33.95
2022-12-07T00:17:03.009Z,28.13
2022-12-07T00:20:08.098Z,23.98
2022-12-07T00:23:12.635Z,23.40
2022-12-07T00:26:24.751Z,24.50
2022-12-07T00:29:29.135Z,27.17
2022-12-07T00:32:33.354Z,46.15
2022-12-07T00:35:37.694Z,32.92
2022-12-07T00:38:42.363Z,10.93
2022-12-07T00:41:46.646Z,8.00
2022-12-07T00:44:50.955Z,8.18
2022-12-07T00:47:55.642Z,6.97
2022-12-07T00:51:00.172Z,18.80
2022-12-07T00:54:04.763Z,16.23
2022-12-07T00:57:09.581Z,7.83
2022-12-07T01:00:14.304Z,5.88
2022-12-07T01:03:19.360Z,5.65
2022-12-07T01:06:25.282Z,5.97
2022-12-07T01:09:29.867Z,7.15
2022-12-07T01:12:34.087Z,6.05
2022-12-07T01:15:42.967Z,5.10
2022-12-07T01:18:49.863Z,5.32
2022-12-07T01:21:53.982Z,6.40
2022-12-07T01:24:58.218Z,4.38
2022-12-07T01:28:02.302Z,4.72
2022-12-07T01:31:13.598Z,6.40
2022-12-07T01:34:17.984Z,25.42
2022-12-07T01:37:23.286Z,8.50
2022-12-07T01:40:27.684Z,17.00
2022-12-07T01:43:34.939Z,6.05
2022-12-07T01:46:39.729Z,5.07
2022-12-07T01:49:50.856Z,4.55
2022-12-07T01:52:58.177Z,7.57
2022-12-07T01:56:03.014Z,7.55
2022-12-07T01:59:07.402Z,4.93
2022-12-07T02:02:20.670Z,4.25
2022-12-07T02:05:27.808Z,5.00
2022-12-07T02:08:32.001Z,4.93
2022-12-07T02:11:37.088Z,4.93
2022-12-07T02:14:41.610Z,4.95
2022-12-07T02:17:57.193Z,5.13
2022-12-07T02:21:01.594Z,5.75
2022-12-07T02:24:33.598Z,5.63
2022-12-07T02:27:49.319Z,5.45
2022-12-07T02:30:57.531Z,5.15
2022-12-07T02:34:24.521Z,4.93
2022-12-07T02:37:31.731Z,4.45
2022-12-07T02:40:44.226Z,4.32
2022-12-07T02:44:02.019Z,4.65
2022-12-07T02:47:14.264Z,6.03
2022-12-07T02:50:21.957Z,4.65
2022-12-07T02:53:36.547Z,5.47
2022-12-07T02:56:46.943Z,4.35
2022-12-07T03:00:10.460Z,5.78
2022-12-07T03:03:17.650Z,5.22
2022-12-07T03:06:38.197Z,5.47
2022-12-07T03:10:08.096Z,4.90
2022-12-07T03:13:22.653Z,4.82
2022-12-07T03:16:42.737Z,6.30
2022-12-07T03:19:48.970Z,4.75
2022-12-07T03:22:55.152Z,5.40
2022-12-07T03:26:03.263Z,5.70
2022-12-07T03:29:12.836Z,5.18
2022-12-07T03:32:27.937Z,5.35
2022-12-07T03:35:35.437Z,5.00
2022-12-07T03:38:39.546Z,4.30
2022-12-07T03:41:45.468Z,6.10
2022-12-07T03:44:50.242Z,4.45
2022-12-07T03:48:17.411Z,5.65
2022-12-07T03:51:36.694Z,4.90
2022-12-07T03:55:00.317Z,7.15
2022-12-07T03:58:09.613Z,8.98
2022-12-07T04:01:14.362Z,14.70
2022-12-07T04:04:19.473Z,12.02
2022-12-07T04:07:23.599Z,15.57
2022-12-07T04:10:27.823Z,32.60
2022-12-07T04:13:51.997Z,61.22
2022-12-07T04:16:58.892Z,5.68
2022-12-07T04:20:04.035Z,13.70
2022-12-07T04:23:08.475Z,26.55
2022-12-07T04:26:12.565Z,16.85
2022-12-07T04:29:18.943Z,8.80
2022-12-07T04:32:23.720Z,8.25
2022-12-07T04:35:28.288Z,8.37
2022-12-07T04:38:32.730Z,4.63
2022-12-07T04:41:37.093Z,14.18
2022-12-07T04:44:41.909Z,4.63
2022-12-07T04:47:46.043Z,102.47
2022-12-07T04:50:54.027Z,89.68
2022-12-07T04:53:58.674Z,39.90
2022-12-07T04:57:02.915Z,7.85
2022-12-07T05:00:09.375Z,7.68
2022-12-07T05:03:13.685Z,14.50
2022-12-07T05:06:18.000Z,5.43
2022-12-07T05:09:22.456Z,5.50
2022-12-07T05:12:26.660Z,4.82
2022-12-07T05:15:32.379Z,5.35
2022-12-07T05:18:36.552Z,5.35
2022-12-07T05:21:41.633Z,75.88
2022-12-07T05:24:46.022Z,7.43
2022-12-07T05:27:50.328Z,13.63
2022-12-07T05:30:59.545Z,5.20
2022-12-07T05:34:04.473Z,13.52
2022-12-07T05:37:09.106Z,8.70
2022-12-07T05:40:17.319Z,13.00
2022-12-07T05:43:21.760Z,9.73
2022-12-07T05:46:26.385Z,18.55
2022-12-07T05:49:30.653Z,14.30
2022-12-07T05:52:35.257Z,9.80
2022-12-07T05:55:39.503Z,9.65
2022-12-07T05:59:02.292Z,4.57
2022-12-07T06:02:10.278Z,7.05
2022-12-07T06:05:14.771Z,4.57
2022-12-07T06:08:18.976Z,7.80
2022-12-07T06:11:41.408Z,11.73
2022-12-07T06:14:46.195Z,5.25
2022-12-07T06:17:50.727Z,4.88
2022-12-07T06:20:56.405Z,17.23
2022-12-07T06:24:00.972Z,15.40
2022-12-07T06:27:05.703Z,20.88
2022-12-07T06:30:10.851Z,9.23
2022-12-07T06:33:15.102Z,7.10
2022-12-07T06:36:25.539Z,6.63
2022-12-07T06:39:32.114Z,5.80
2022-12-07T06:42:36.990Z,6.25
2022-12-07T06:45:42.522Z,7.03
2022-12-07T06:48:46.954Z,5.68
2022-12-07T06:51:51.314Z,13.18
2022-12-07T06:54:55.877Z,7.68
2022-12-07T06:58:00.082Z,7.55
2022-12-07T07:01:05.033Z,10.40
2022-12-07T07:04:09.762Z,30.40
2022-12-07T07:07:14.183Z,28.38
2022-12-07T07:10:19.620Z,30.67
2022-12-07T07:13:23.954Z,23.27
2022-12-07T07:16:28.199Z,11.70
2022-12-07T07:19:32.663Z,8.50
2022-12-07T07:22:37.085Z,8.25
2022-12-07T07:25:41.662Z,6.40
2022-12-07T07:28:45.847Z,5.10
2022-12-07T07:31:50.289Z,4.68
2022-12-07T07:34:54.583Z,13.57
2022-12-07T07:37:59.303Z,6.75
2022-12-07T07:41:03.680Z,5.82
2022-12-07T07:44:08.133Z,6.03
2022-12-07T07:47:12.707Z,8.88
2022-12-07T07:50:18.062Z,9.75
2022-12-07T07:53:22.315Z,13.52
2022-12-07T07:56:26.733Z,10.88
2022-12-07T07:59:31.238Z,14.40
2022-12-07T08:02:35.523Z,19.60
2022-12-07T08:05:40.483Z,18.77
2022-12-07T08:08:44.770Z,19.02
2022-12-07T08:11:49.372Z,23.75
2022-12-07T08:14:53.777Z,49.92
2022-12-07T08:17:58.253Z,26.90
2022-12-07T08:21:03.101Z,30.70
2022-12-07T08:24:07.684Z,33.33
2022-12-07T08:27:12.201Z,36.17
2022-12-07T08:30:16.689Z,36.05
2022-12-07T08:33:24.263Z,42.35
2022-12-07T08:36:29.244Z,33.17
2022-12-07T08:39:33.805Z,33.70
2022-12-07T08:42:41.940Z,52.97
2022-12-07T08:45:46.187Z,51.05
2022-12-07T08:49:07.502Z,45.72
2022-12-07T08:52:12.165Z,48.58
2022-12-07T08:55:16.388Z,43.67
2022-12-07T08:58:21.068Z,55.67
2022-12-07T09:01:25.675Z,58.28
2022-12-07T09:04:32.653Z,78.88
2022-12-07T09:07:37.287Z,84.70
2022-12-07T09:10:41.654Z,85.60
2022-12-07T09:13:45.908Z,83.07
2022-12-07T09:16:50.381Z,50.67
2022-12-07T09:19:54.863Z,58.73
2022-12-07T09:22:59.614Z,67.28
2022-12-07T09:26:10.607Z,51.90
2022-12-07T09:29:15.577Z,43.28
2022-12-07T09:32:20.057Z,29.93
2022-12-07T09:35:25.699Z,29.83
2022-12-07T09:38:31.463Z,30.80
2022-12-07T09:41:44.840Z,30.95
2022-12-07T09:44:49.301Z,30.45
2022-12-07T09:47:54.515Z,33.80
2022-12-07T09:51:01.392Z,42.05
2022-12-07T09:54:06.162Z,42.55
2022-12-07T09:57:14.156Z,34.08
2022-12-07T10:00:23.420Z,32.63
2022-12-07T10:03:30.419Z,33.25
2022-12-07T10:06:34.847Z,32.13
2022-12-07T10:09:39.482Z,38.63
2022-12-07T10:13:06.488Z,29.65
2022-12-07T10:16:29.783Z,49.00
2022-12-07T10:19:35.592Z,35.90
2022-12-07T10:25:44.916Z,56.65
2022-12-07T10:28:50.592Z,52.47
2022-12-07T10:32:01.388Z,59.42
2022-12-07T10:35:27.400Z,53.35
2022-12-07T10:38:34.312Z,50.95
2022-12-07T10:42:04.576Z,60.45
2022-12-07T10:45:21.034Z,53.58
2022-12-07T10:48:48.008Z,60.03
2022-12-07T10:51:58.224Z,62.00
2022-12-07T10:55:05.350Z,62.70
2022-12-07T10:58:33.522Z,58.88
2022-12-07T11:02:23.722Z,67.10
2022-12-07T11:06:01.138Z,61.72
2022-12-07T11:10:06.886Z,63.45
2022-12-07T11:13:07.240Z,58.88
2022-12-07T11:16:32.272Z,64.60
2022-12-07T11:20:04.367Z,65.15
2022-12-07T11:23:24.062Z,55.03
2022-12-07T11:26:50.232Z,62.00
2022-12-07T11:30:16.342Z,59.40
2022-12-07T11:36:40.638Z,58.17
2022-12-07T11:40:05.954Z,58.78
2022-12-07T11:43:19.744Z,60.58
2022-12-07T11:46:29.973Z,63.35
2022-12-07T11:49:43.674Z,61.05
2022-12-07T11:52:55.475Z,57.33
2022-12-07T11:56:24.987Z,52.40
2022-12-07T11:59:51.166Z,52.42
2022-12-07T12:03:02.603Z,51.97
2022-12-07T12:06:07.112Z,51.10
2022-12-07T12:16:36.693Z,54.97
2022-12-07T12:19:45.282Z,57.03
2022-12-07T12:23:08.206Z,58.97
2022-12-07T12:26:26.609Z,63.30
2022-12-07T12:29:58.156Z,58.22
2022-12-07T12:33:19.038Z,59.90
2022-12-07T12:36:28.030Z,64.93
2022-12-07T12:39:32.762Z,60.40
2022-12-07T12:42:53.858Z,62.13
2022-12-07T12:46:32.003Z,69.38
2022-12-07T12:49:42.141Z,57.78
2022-12-07T12:52:50.358Z,53.63
2022-12-07T12:56:07.403Z,52.72
2022-12-07T12:59:25.367Z,54.85
2022-12-07T13:02:34.391Z,52.53
2022-12-07T13:05:39.219Z,52.65
2022-12-07T13:08:44.325Z,43.03
2022-12-07T13:11:49.157Z,42.65
2022-12-07T13:15:01.502Z,43.08
2022-12-07T13:18:24.993Z,42.47
2022-12-07T13:21:30.319Z,37.17
2022-12-07T13:24:35.287Z,46.08
2022-12-07T13:27:46.151Z,35.78
2022-12-07T13:31:28.085Z,46.97
2022-12-07T13:34:35.521Z,50.58
2022-12-07T13:37:40.878Z,57.00
2022-12-07T13:40:45.284Z,52.78
2022-12-07T13:43:56.258Z,46.80
2022-12-07T13:47:08.879Z,44.45
2022-12-07T13:50:33.992Z,42.90
2022-12-07T13:53:49.525Z,43.78
2022-12-07T13:56:54.813Z,23.48
2022-12-07T14:00:00.321Z,33.65
2022-12-07T14:03:34.776Z,47.92
2022-12-07T14:06:48.855Z,52.20
2022-12-07T14:09:57.486Z,46.53
2022-12-07T14:13:03.350Z,43.88
2022-12-07T14:16:37.072Z,53.47
2022-12-07T14:20:28.975Z,96.78
2022-12-07T14:23:33.402Z,30.70
2022-12-07T14:26:39.825Z,46.30
2022-12-07T14:29:44.341Z,36.60
2022-12-07T14:32:53.932Z,35.85
2022-12-07T14:35:59.825Z,33.90
2022-12-07T14:39:06.454Z,31.65
2022-12-07T14:42:12.970Z,38.97
2022-12-07T14:45:21.677Z,41.00
2022-12-07T14:55:36.306Z,47.47
2022-12-07T14:58:41.379Z,43.85
2022-12-07T15:01:45.630Z,48.50
2022-12-07T15:04:50.060Z,53.45
2022-12-07T15:07:54.474Z,57.97
2022-12-07T15:10:58.999Z,39.90
2022-12-07T15:14:13.145Z,38.37
2022-12-07T15:17:28.092Z,41.47
2022-12-07T15:20:34.694Z,36.70
2022-12-07T15:23:39.130Z,34.33
2022-12-07T15:26:44.039Z,32.80
2022-12-07T15:29:48.638Z,32.60
2022-12-07T15:32:53.920Z,46.93
2022-12-07T15:36:01.450Z,69.25
2022-12-07T15:39:14.261Z,53.33
2022-12-07T15:42:19.492Z,63.90
2022-12-07T15:45:24.344Z,65.67
2022-12-07T15:48:29.451Z,60.72
2022-12-07T15:54:38.095Z,41.72
2022-12-07T15:57:42.725Z,52.97
2022-12-07T16:00:46.967Z,46.42
2022-12-07T16:03:51.248Z,31.77
2022-12-07T16:06:55.725Z,32.70
2022-12-07T16:09:59.969Z,30.10
2022-12-07T16:13:04.627Z,22.20
2022-12-07T16:16:18.264Z,13.27
2022-12-07T16:19:23.207Z,28.25
2022-12-07T16:22:27.640Z,26.00
2022-12-07T16:25:32.463Z,25.50
2022-12-07T16:28:37.592Z,22.08
2022-12-07T16:31:42.960Z,21.88
2022-12-07T16:34:47.213Z,23.75
2022-12-07T16:37:51.447Z,26.67
2022-12-07T16:40:56.563Z,26.65
2022-12-07T16:44:06.792Z,28.30
2022-12-07T16:47:11.139Z,19.15
2022-12-07T16:50:15.879Z,12.23
2022-12-07T16:53:20.670Z,21.05
2022-12-07T16:56:25.210Z,20.08
2022-12-07T16:59:29.603Z,17.65
2022-12-07T17:02:33.655Z,14.27
2022-12-07T17:05:43.181Z,18.10
2022-12-07T17:08:50.411Z,16.13
2022-12-07T17:11:55.033Z,17.90
2022-12-07T17:15:17.585Z,18.17
2022-12-07T17:18:21.755Z,21.15
2022-12-07T17:21:26.353Z,19.25
2022-12-07T17:24:30.641Z,21.33
2022-12-07T17:27:35.405Z,21.70
2022-12-07T17:30:40.668Z,21.92
2022-12-07T17:33:44.820Z,21.38
2022-12-07T17:36:49.631Z,21.15
2022-12-07T17:39:57.667Z,22.98
2022-12-07T17:43:02.209Z,19.73
2022-12-07T17:46:10.978Z,23.70
2022-12-07T17:49:15.846Z,19.33
2022-12-07T17:52:38.527Z,20.75
2022-12-07T17:56:19.560Z,19.42
2022-12-07T17:59:08.148Z,21.95
2022-12-07T18:02:13.079Z,21.35
2022-12-07T18:05:17.683Z,19.20
2022-12-07T18:08:22.162Z,22.80
2022-12-07T18:11:27.462Z,20.50
2022-12-07T18:14:31.834Z,24.08
2022-12-07T18:17:36.385Z,24.25
2022-12-07T18:20:40.829Z,19.38
2022-12-07T18:23:47.237Z,22.33
2022-12-07T18:26:52.328Z,22.50
2022-12-07T18:29:56.765Z,19.70
2022-12-07T18:33:01.385Z,25.15
2022-12-07T18:36:06.862Z,25.27
2022-12-07T18:42:15.422Z,21.55
2022-12-07T18:45:19.841Z,19.17
2022-12-07T18:48:24.743Z,17.77
2022-12-07T18:51:32.429Z,18.55
2022-12-07T18:54:37.427Z,23.17
2022-12-07T18:57:41.743Z,14.70
2022-12-07T19:00:47.187Z,16.10
2022-12-07T19:03:51.586Z,16.65
2022-12-07T19:06:56.529Z,17.73
2022-12-07T19:10:00.723Z,14.45
2022-12-07T19:13:06.852Z,12.75
2022-12-07T19:16:11.768Z,15.63
2022-12-07T19:19:16.300Z,17.70
2022-12-07T19:22:23.121Z,25.90
2022-12-07T19:25:27.683Z,24.00
2022-12-07T19:28:31.825Z,22.17
2022-12-07T19:31:37.493Z,26.13
2022-12-07T19:34:43.764Z,25.17
2022-12-07T19:37:48.495Z,26.27
2022-12-07T19:40:52.734Z,27.17
2022-12-07T19:43:57.629Z,25.13
2022-12-07T19:47:05.540Z,18.25
2022-12-07T19:50:10.317Z,17.27
2022-12-07T19:53:14.928Z,18.13
2022-12-07T19:56:20.975Z,16.45
2022-12-07T19:59:30.723Z,17.02
2022-12-07T20:02:36.541Z,28.95
2022-12-07T20:05:41.118Z,17.77
2022-12-07T20:08:46.956Z,20.30
2022-12-07T20:12:10.456Z,19.85
2022-12-07T20:15:15.269Z,23.23
2022-12-07T20:18:19.731Z,24.08
2022-12-07T20:21:25.155Z,16.90
2022-12-07T20:24:29.530Z,26.17
2022-12-07T20:27:33.916Z,28.90
2022-12-07T20:30:38.108Z,24.93
2022-12-07T20:33:44.296Z,30.17
2022-12-07T20:36:48.731Z,25.33
2022-12-07T20:39:53.159Z,29.63
2022-12-07T20:42:57.470Z,34.90
2022-12-07T20:46:02.267Z,30.73
2022-12-07T20:49:06.649Z,31.95
2022-12-07T20:52:10.913Z,27.50
2022-12-07T20:55:15.757Z,26.55
2022-12-07T20:58:20.064Z,29.00
2022-12-07T21:01:24.884Z,24.13
2022-12-07T21:04:29.413Z,21.77
2022-12-07T21:07:33.768Z,17.48
2022-12-07T21:10:38.082Z,24.63
2022-12-07T21:13:43.111Z,24.45
2022-12-07T21:16:47.892Z,21.98
2022-12-07T21:19:52.415Z,18.80
2022-12-07T21:22:56.639Z,30.73
2022-12-07T21:26:01.344Z,32.67
2022-12-07T21:29:07.837Z,29.08
2022-12-07T21:32:14.082Z,24.98
2022-12-07T21:35:18.359Z,21.48
2022-12-07T21:38:22.471Z,21.27
2022-12-07T21:41:31.633Z,26.30
2022-12-07T21:44:35.920Z,50.33
2022-12-07T21:47:40.361Z,37.10
2022-12-07T21:50:44.674Z,45.03
2022-12-07T21:53:50.302Z,37.25
2022-12-07T21:56:54.509Z,36.63
2022-12-07T21:59:58.834Z,51.25
2022-12-07T22:03:03.443Z,41.67
2022-12-07T22:06:08.007Z,37.58
2022-12-07T22:09:13.044Z,37.55
2022-12-07T22:12:17.337Z,35.63
2022-12-07T22:15:21.764Z,36.15
2022-12-07T22:18:26.050Z,23.15
2022-12-07T22:21:31.404Z,25.37
2022-12-07T22:24:36.262Z,26.13
2022-12-07T22:27:41.233Z,29.65
2022-12-07T22:30:46.193Z,27.50
2022-12-07T22:33:51.117Z,24.25
2022-12-07T22:36:55.630Z,32.17
2022-12-07T22:40:00.736Z,25.83
2022-12-07T22:43:05.926Z,26.15
2022-12-07T22:46:11.330Z,35.63
2022-12-07T22:49:15.900Z,24.25
2022-12-07T22:52:20.125Z,27.60
2022-12-07T22:55:24.668Z,29.55
2022-12-07T22:58:28.971Z,30.13
2022-12-07T23:01:33.637Z,34.88
2022-12-07T23:04:37.960Z,44.55
2022-12-07T23:07:42.868Z,33.70
2022-12-07T23:10:49.684Z,28.60
2022-12-07T23:13:54.002Z,31.77
2022-12-07T23:16:58.937Z,33.65
2022-12-07T23:20:03.510Z,34.70
2022-12-07T23:23:08.204Z,51.08
2022-12-07T23:26:13.180Z,46.10
2022-12-07T23:32:22.985Z,29.77
2022-12-07T23:35:27.583Z,49.95
2022-12-07T23:38:31.768Z,61.88
2022-12-07T23:41:36.211Z,33.83
2022-12-07T23:44:40.373Z,35.53
2022-12-07T23:47:44.817Z,11.80
2022-12-07T23:50:49.225Z,8.05
2022-12-07T23:53:54.842Z,7.90
2022-12-07T23:56:59.446Z,7.53
